Time;durP1;ratioP1;P1;durP2;ratioP2;P2;SDS_P1;SDS_P2;PMS_P1;PMS_P2;Temp;Humidity;BMP_temperature;BMP_pressure;BME280_temperature;BME280_humidity;BME280_pressure;Samples;Min_cycle;Max_cycle;Signal;HPM_P1;HPM_P2
2022/01/25 00:08:26;;;;;;;;;;;;;;;;;;5002720;28;19940;-96
2022/01/25 00:24:45;;;;;;;;;;;;;;;;;;5017263;28;19968;-96
2022/01/25 00:27:25;;;;;;;;;;;;;;;;;;5002863;28;19930;-96
2022/01/25 00:30:10;;;;;;;;;;;;;;;;;;5002673;28;19929;-96
2022/01/25 00:32:37;;;;;;;;;;;;;;;;;;5019605;28;19925;-96
2022/01/25 00:35:03;;;;;;;;;;;;;;;;;;5018602;28;19933;-95
2022/01/25 00:37:29;;;;;;;;;;;;;;;;;;5020351;28;20736;-96
2022/01/25 00:39:55;;;;;;;;;;;;;;;;;;5013788;28;20347;-96
2022/01/25 00:42:22;;;;;;;;;;;;;;;;;;5001548;28;19929;-96
2022/01/25 00:44:49;;;;;;;;;;;;;;;;;;4999989;28;19937;-96
2022/01/25 00:47:16;;;;;;;;;;;;;;;;;;5015649;28;19941;-96
2022/01/25 00:49:44;;;;;;;;;;;;;;;;;;5001684;28;19929;-95
2022/01/25 00:52:24;;;;;;;;;;;;;;;;;;5019814;28;19930;-95
2022/01/25 00:54:52;;;;;;;;;;;;;;;;;;5013209;28;19940;-95
2022/01/25 00:57:19;;;;;;;;;;;;;;;;;;5000414;28;20028;-94
2022/01/25 00:59:47;;;;;;;;;;;;;;;;;;5000316;28;19933;-95
2022/01/25 01:02:13;;;;;;;;;;;;;;;;;;5016091;28;19952;-95
2022/01/25 01:04:41;;;;;;;;;;;;;;;;;;5019677;28;20466;-95
2022/01/25 01:07:08;;;;;;;;;;;;;;;;;;5019795;28;19925;-96
2022/01/25 01:09:37;;;;;;;;;;;;;;;;;;5017658;28;19936;-95
2022/01/25 01:12:08;;;;;;;;;;;;;;;;;;5003943;28;19930;-95
2022/01/25 01:14:53;;;;;;;;;;;;;;;;;;5004381;28;19961;-96
2022/01/25 01:31:01;;;;;;;;;;;;;;;;;;5021378;28;19925;-96
2022/01/25 01:33:59;;;;;;;;;;;;;;;;;;5024014;28;19949;-95
2022/01/25 01:36:55;;;;;;;;;;;;;;;;;;5024071;28;19935;-96
2022/01/25 01:45:11;;;;;;;;;;;;;;;;;;5002699;28;19937;-95
2022/01/25 01:47:43;;;;;;;;;;;;;;;;;;5004284;28;19979;-96
2022/01/25 01:50:13;;;;;;;;;;;;;;;;;;5022679;28;19930;-96
2022/01/25 01:52:40;;;;;;;;;;;;;;;;;;5023143;28;19997;-96
2022/01/25 01:55:06;;;;;;;;;;;;;;;;;;5022730;28;19953;-96
2022/01/25 01:57:32;;;;;;;;;;;;;;;;;;5023421;28;20386;-96
2022/01/25 01:59:59;;;;;;;;;;;;;;;;;;5006879;28;19925;-96
2022/01/25 02:02:25;;;;;;;;;;;;;;;;;;5023559;28;19926;-96
2022/01/25 02:04:51;;;;;;;;;;;;;;;;;;5022938;28;19933;-94
2022/01/25 02:07:17;;;;;;;;;;;;;;;;;;5023697;28;19949;-93
2022/01/25 02:09:44;;;;;;;;;;;;;;;;;;5023537;28;19930;-95
2022/01/25 02:12:10;;;;;;;;;;;;;;;;;;5023865;28;19972;-95
2022/01/25 02:14:37;;;;;;;;;;;;;;;;;;5023827;28;19972;-94
2022/01/25 02:17:10;;;;;;;;;;;;;;;;;;5022751;28;20032;-95
2022/01/25 02:22:30;;;;;;;;;;;;;;;;;;5002572;28;19936;-94
2022/01/25 02:24:57;;;;;;;;;;;;;;;;;;5003461;28;19933;-94
2022/01/25 02:27:23;;;;;;;;;;;;;;;;;;4989644;28;19926;-94
2022/01/25 02:29:49;;;;;;;;;;;;;;;;;;5005772;28;19926;-94
2022/01/25 02:32:15;;;;;;;;;;;;;;;;;;5022856;28;19929;-94
2022/01/25 02:34:42;;;;;;;;;;;;;;;;;;5023191;28;20658;-94
2022/01/25 02:37:08;;;;;;;;;;;;;;;;;;5003372;28;19937;-94
2022/01/25 02:39:34;;;;;;;;;;;;;;;;;;5004708;28;19926;-93
2022/01/25 02:42:00;;;;;;;;;;;;;;;;;;5004064;28;19949;-95
2022/01/25 02:44:29;;;;;;;;;;;;;;;;;;5003798;28;19957;-94
2022/01/25 02:49:39;;;;;;;;;;;;;;;;;;5023171;28;19924;-95
2022/01/25 02:52:05;;;;;;;;;;;;;;;;;;5022804;28;19930;-94
2022/01/25 02:54:31;;;;;;;;;;;;;;;;;;5021732;28;19933;-93
2022/01/25 02:56:58;;;;;;;;;;;;;;;;;;5004484;28;19929;-95
2022/01/25 02:59:24;;;;;;;;;;;;;;;;;;5001220;28;19937;-95
2022/01/25 03:01:50;;;;;;;;;;;;;;;;;;5016819;28;19929;-95
2022/01/25 03:04:17;;;;;;;;;;;;;;;;;;5021996;28;19931;-95
2022/01/25 03:06:43;;;;;;;;;;;;;;;;;;5007069;28;19929;-95
2022/01/25 03:09:10;;;;;;;;;;;;;;;;;;5003480;28;19936;-95
2022/01/25 03:11:36;;;;;;;;;;;;;;;;;;5015681;28;19925;-94
2022/01/25 03:14:07;;;;;;;;;;;;;;;;;;5004772;28;19952;-94
2022/01/25 03:16:37;;;;;;;;;;;;;;;;;;5022943;28;19937;-95
2022/01/25 03:19:04;;;;;;;;;;;;;;;;;;5022574;28;19961;-94
2022/01/25 03:21:37;;;;;;;;;;;;;;;;;;5011661;28;19925;-96
2022/01/25 03:24:03;;;;;;;;;;;;;;;;;;5002454;28;20001;-95
2022/01/25 03:26:29;;;;;;;;;;;;;;;;;;5013405;28;19976;-95
2022/01/25 03:28:56;;;;;;;;;;;;;;;;;;5022481;28;19929;-95
2022/01/25 03:31:22;;;;;;;;;;;;;;;;;;5020475;28;19957;-96
2022/01/25 03:33:48;;;;;;;;;;;;;;;;;;5024224;28;19963;-96
2022/01/25 03:36:14;;;;;;;;;;;;;;;;;;5014722;28;19957;-94
2022/01/25 03:38:41;;;;;;;;;;;;;;;;;;5004036;28;19925;-92
2022/01/25 03:41:07;;;;;;;;;;;;;;;;;;5011340;28;20430;-94
2022/01/25 03:43:34;;;;;;;;;;;;;;;;;;5022279;28;19925;-95
2022/01/25 03:46:05;;;;;;;;;;;;;;;;;;5021774;28;19929;-94
2022/01/25 03:51:15;;;;;;;;;;;;;;;;;;5022978;28;19939;-95
2022/01/25 03:53:42;;;;;;;;;;;;;;;;;;5022956;28;19930;-96
2022/01/25 03:56:08;;;;;;;;;;;;;;;;;;5020456;28;19952;-94
2022/01/25 03:58:35;;;;;;;;;;;;;;;;;;5022191;28;19960;-95
2022/01/25 04:01:01;;;;;;;;;;;;;;;;;;5022272;28;19996;-94
2022/01/25 04:03:32;;;;;;;;;;;;;;;;;;5029311;28;19909;-96
2022/01/25 04:05:59;;;;;;;;;;;;;;;;;;5025241;28;19929;-94
2022/01/25 04:08:25;;;;;;;;;;;;;;;;;;5023282;28;19929;-94
2022/01/25 04:10:51;;;;;;;;;;;;;;;;;;5023452;28;19933;-95
2022/01/25 04:13:19;;;;;;;;;;;;;;;;;;5023215;28;19953;-95
2022/01/25 04:15:46;;;;;;;;;;;;;;;;;;5019693;28;19965;-95
2022/01/25 04:18:26;;;;;;;;;;;;;;;;;;5002913;28;19933;-94
2022/01/25 04:21:02;;;;;;;;;;;;;;;;;;5005485;28;19961;-95
2022/01/25 04:26:12;;;;;;;;;;;;;;;;;;5016925;28;19989;-95
2022/01/25 04:28:38;;;;;;;;;;;;;;;;;;5003089;28;19980;-95
2022/01/25 04:31:04;;;;;;;;;;;;;;;;;;5008873;28;19929;-95
2022/01/25 04:33:40;;;;;;;;;;;;;;;;;;5021377;28;19930;-93
2022/01/25 04:36:25;;;;;;;;;;;;;;;;;;5020902;28;19933;-95
2022/01/25 04:50:01;;;;;;;;;;;;;;;;;;5020149;28;19967;-94
2022/01/25 04:52:32;;;;;;;;;;;;;;;;;;5016763;28;19952;-96
2022/01/25 04:55:09;;;;;;;;;;;;;;;;;;5016015;28;19945;-96
2022/01/25 04:57:44;;;;;;;;;;;;;;;;;;5023969;28;19974;-96
2022/01/25 05:00:16;;;;;;;;;;;;;;;;;;5025763;28;19925;-95
2022/01/25 05:02:48;;;;;;;;;;;;;;;;;;5007993;28;19926;-94
2022/01/25 05:05:19;;;;;;;;;;;;;;;;;;5006923;28;20001;-91
2022/01/25 05:07:52;;;;;;;;;;;;;;;;;;5017297;28;19983;-91
2022/01/25 05:10:18;;;;;;;;;;;;;;;;;;5024191;28;19948;-91
2022/01/25 05:12:50;;;;;;;;;;;;;;;;;;5024754;28;19948;-93
2022/01/25 05:15:24;;;;;;;;;;;;;;;;;;5015256;28;19926;-91
2022/01/25 05:18:04;;;;;;;;;;;;;;;;;;5021869;28;19996;-91
2022/01/25 05:23:14;;;;;;;;;;;;;;;;;;5019870;28;19924;-90
2022/01/25 05:25:40;;;;;;;;;;;;;;;;;;5019802;28;19929;-91
2022/01/25 05:28:06;;;;;;;;;;;;;;;;;;5022792;28;19979;-90
2022/01/25 05:30:33;;;;;;;;;;;;;;;;;;5023187;28;19945;-91
2022/01/25 05:32:59;;;;;;;;;;;;;;;;;;5022936;28;19929;-93
2022/01/25 05:35:25;;;;;;;;;;;;;;;;;;5022373;28;19971;-90
2022/01/25 05:37:51;;;;;;;;;;;;;;;;;;5008269;28;19926;-92
2022/01/25 05:40:28;;;;;;;;;;;;;;;;;;5005333;28;20315;-91
2022/01/25 05:45:50;;;;;;;;;;;;;;;;;;5006620;28;19953;-92
2022/01/25 05:48:16;;;;;;;;;;;;;;;;;;5023719;28;19932;-91
2022/01/25 05:50:43;;;;;;;;;;;;;;;;;;5023646;28;20016;-91
2022/01/25 05:53:09;;;;;;;;;;;;;;;;;;5006767;28;19933;-91
2022/01/25 05:55:35;;;;;;;;;;;;;;;;;;5004098;28;20040;-90
2022/01/25 05:58:01;;;;;;;;;;;;;;;;;;5003513;28;20000;-91
2022/01/25 06:00:28;;;;;;;;;;;;;;;;;;5003458;28;19926;-91
2022/01/25 06:02:55;;;;;;;;;;;;;;;;;;5021880;28;19933;-91
2022/01/25 06:05:23;;;;;;;;;;;;;;;;;;5022061;28;19965;-90
2022/01/25 06:07:49;;;;;;;;;;;;;;;;;;5009624;28;19926;-90
2022/01/25 06:10:15;;;;;;;;;;;;;;;;;;5004529;28;19926;-91
2022/01/25 06:12:44;;;;;;;;;;;;;;;;;;5004160;28;19973;-91
2022/01/25 06:15:10;;;;;;;;;;;;;;;;;;5004023;28;19925;-91
2022/01/25 06:17:37;;;;;;;;;;;;;;;;;;5022174;28;19925;-91
2022/01/25 06:20:03;;;;;;;;;;;;;;;;;;5023326;28;19930;-90
2022/01/25 06:22:29;;;;;;;;;;;;;;;;;;5013795;28;19930;-91
2022/01/25 06:24:55;;;;;;;;;;;;;;;;;;5004181;28;20028;-91
2022/01/25 06:27:22;;;;;;;;;;;;;;;;;;5003883;28;19929;-91
2022/01/25 06:29:49;;;;;;;;;;;;;;;;;;5001371;28;19975;-90
2022/01/25 06:32:16;;;;;;;;;;;;;;;;;;5009462;28;19926;-91
2022/01/25 06:34:43;;;;;;;;;;;;;;;;;;5002234;28;19979;-91
2022/01/25 06:37:11;;;;;;;;;;;;;;;;;;5008463;28;19987;-91
2022/01/25 06:39:37;;;;;;;;;;;;;;;;;;5021909;28;19937;-91
2022/01/25 06:42:03;;;;;;;;;;;;;;;;;;5021947;28;19934;-91
2022/01/25 06:44:32;;;;;;;;;;;;;;;;;;5023130;28;19947;-92
2022/01/25 06:46:58;;;;;;;;;;;;;;;;;;5022384;28;19926;-89
2022/01/25 06:49:25;;;;;;;;;;;;;;;;;;5021293;28;19926;-90
2022/01/25 06:51:51;;;;;;;;;;;;;;;;;;5018582;28;19961;-90
2022/01/25 06:54:17;;;;;;;;;;;;;;;;;;5002858;28;19930;-92
2022/01/25 06:56:43;;;;;;;;;;;;;;;;;;5002854;28;20332;-92
2022/01/25 06:59:10;;;;;;;;;;;;;;;;;;5018033;28;20379;-92
2022/01/25 07:01:36;;;;;;;;;;;;;;;;;;5017573;28;20510;-92
2022/01/25 07:04:03;;;;;;;;;;;;;;;;;;5002537;28;20000;-92
2022/01/25 07:06:29;;;;;;;;;;;;;;;;;;5002428;28;19934;-92
2022/01/25 07:08:55;;;;;;;;;;;;;;;;;;4996096;28;19977;-92
2022/01/25 07:11:22;;;;;;;;;;;;;;;;;;5002704;28;19953;-92
2022/01/25 07:13:48;;;;;;;;;;;;;;;;;;5003081;28;19993;-92
2022/01/25 07:16:14;;;;;;;;;;;;;;;;;;5010716;28;19930;-92
2022/01/25 07:18:40;;;;;;;;;;;;;;;;;;5021874;28;19949;-94
2022/01/25 07:21:07;;;;;;;;;;;;;;;;;;5016875;28;20405;-94
2022/01/25 07:23:33;;;;;;;;;;;;;;;;;;5012355;28;20056;-94
2022/01/25 07:25:59;;;;;;;;;;;;;;;;;;5010821;28;19925;-93
2022/01/25 07:28:25;;;;;;;;;;;;;;;;;;5007844;28;19929;-94
2022/01/25 07:30:51;;;;;;;;;;;;;;;;;;5006778;28;19975;-93
2022/01/25 07:33:18;;;;;;;;;;;;;;;;;;5021736;28;19929;-93
2022/01/25 07:35:45;;;;;;;;;;;;;;;;;;5021773;28;19929;-93
2022/01/25 07:38:11;;;;;;;;;;;;;;;;;;5010785;28;19936;-93
2022/01/25 07:40:38;;;;;;;;;;;;;;;;;;5002770;28;19929;-93
2022/01/25 07:43:04;;;;;;;;;;;;;;;;;;5002373;28;20405;-95
2022/01/25 07:45:34;;;;;;;;;;;;;;;;;;5003375;28;20027;-93
2022/01/25 07:48:01;;;;;;;;;;;;;;;;;;5021740;28;19936;-93
2022/01/25 07:50:27;;;;;;;;;;;;;;;;;;5022718;28;19949;-93
2022/01/25 07:52:54;;;;;;;;;;;;;;;;;;5022244;28;19993;-94
2022/01/25 07:55:20;;;;;;;;;;;;;;;;;;5022370;28;19930;-94
2022/01/25 07:57:46;;;;;;;;;;;;;;;;;;5013501;28;19953;-94
2022/01/25 08:00:12;;;;;;;;;;;;;;;;;;5000049;28;19926;-94
2022/01/25 08:02:39;;;;;;;;;;;;;;;;;;5019611;28;19949;-94
2022/01/25 08:05:05;;;;;;;;;;;;;;;;;;5022064;28;19925;-95
2022/01/25 08:07:31;;;;;;;;;;;;;;;;;;5003961;28;19972;-95
2022/01/25 08:09:58;;;;;;;;;;;;;;;;;;5021908;28;19960;-94
2022/01/25 08:12:25;;;;;;;;;;;;;;;;;;5017751;28;19929;-94
2022/01/25 08:14:51;;;;;;;;;;;;;;;;;;5020341;28;19929;-95
2022/01/25 08:17:18;;;;;;;;;;;;;;;;;;5012702;28;19953;-95
2022/01/25 08:19:44;;;;;;;;;;;;;;;;;;5014803;28;19934;-93
2022/01/25 08:22:10;;;;;;;;;;;;;;;;;;5023029;28;19929;-93
2022/01/25 08:24:37;;;;;;;;;;;;;;;;;;5006063;28;19930;-94
2022/01/25 08:27:03;;;;;;;;;;;;;;;;;;5005984;28;19929;-94
2022/01/25 08:29:29;;;;;;;;;;;;;;;;;;5018823;28;19926;-94
2022/01/25 08:31:55;;;;;;;;;;;;;;;;;;5019042;28;19925;-94
2022/01/25 08:34:22;;;;;;;;;;;;;;;;;;5025265;28;19926;-94
2022/01/25 08:36:48;;;;;;;;;;;;;;;;;;5025409;28;19936;-95
2022/01/25 08:39:14;;;;;;;;;;;;;;;;;;5006135;28;19979;-94
2022/01/25 08:41:40;;;;;;;;;;;;;;;;;;5003163;28;19930;-94
2022/01/25 08:44:07;;;;;;;;;;;;;;;;;;5021171;28;19980;-94
2022/01/25 08:46:33;;;;;;;;;;;;;;;;;;5015217;28;19930;-93
2022/01/25 08:48:59;;;;;;;;;;;;;;;;;;5002856;28;19930;-93
2022/01/25 08:51:25;;;;;;;;;;;;;;;;;;5005092;28;19998;-92
2022/01/25 08:53:52;;;;;;;;;;;;;;;;;;5004840;28;19926;-92
2022/01/25 08:56:18;;;;;;;;;;;;;;;;;;5004551;28;19929;-92
2022/01/25 08:58:44;;;;;;;;;;;;;;;;;;5007369;28;19980;-94
2022/01/25 09:01:10;;;;;;;;;;;;;;;;;;5011683;28;19976;-96
2022/01/25 09:03:37;;;;;;;;;;;;;;;;;;5024000;28;19930;-94
2022/01/25 09:06:04;;;;;;;;;;;;;;;;;;5024497;28;20020;-95
2022/01/25 09:08:30;;;;;;;;;;;;;;;;;;5015561;28;19972;-93
2022/01/25 09:11:00;;;;;;;;;;;;;;;;;;5005148;28;19929;-94
2022/01/25 09:13:26;;;;;;;;;;;;;;;;;;5003971;28;19926;-93
2022/01/25 09:15:53;;;;;;;;;;;;;;;;;;5007989;28;19992;-94
2022/01/25 09:18:19;;;;;;;;;;;;;;;;;;5022251;28;20015;-92
2022/01/25 09:20:45;;;;;;;;;;;;;;;;;;5021940;28;19937;-92
2022/01/25 09:23:11;;;;;;;;;;;;;;;;;;5020541;28;19952;-92
2022/01/25 09:25:38;;;;;;;;;;;;;;;;;;5024336;28;19952;-92
2022/01/25 09:28:04;;;;;;;;;;;;;;;;;;5018960;28;19953;-93
2022/01/25 09:30:30;;;;;;;;;;;;;;;;;;5004956;28;19929;-93
2022/01/25 09:32:57;;;;;;;;;;;;;;;;;;5023358;28;19987;-94
2022/01/25 09:35:23;;;;;;;;;;;;;;;;;;5022365;28;19926;-95
2022/01/25 09:37:50;;;;;;;;;;;;;;;;;;5021451;28;19926;-94
2022/01/25 09:40:17;;;;;;;;;;;;;;;;;;5018008;28;19925;-94
2022/01/25 09:42:44;;;;;;;;;;;;;;;;;;5022387;28;19930;-95
2022/01/25 09:45:10;;;;;;;;;;;;;;;;;;5022927;28;20363;-95
2022/01/25 09:47:36;;;;;;;;;;;;;;;;;;5024188;28;19930;-93
2022/01/25 09:50:04;;;;;;;;;;;;;;;;;;5025498;28;20379;-95
2022/01/25 09:52:30;;;;;;;;;;;;;;;;;;5031994;28;19925;-95
2022/01/25 09:54:57;;;;;;;;;;;;;;;;;;5020380;28;19948;-96
2022/01/25 09:57:23;;;;;;;;;;;;;;;;;;5043838;28;20021;-96
2022/01/25 09:59:49;;;;;;;;;;;;;;;;;;5029211;28;19945;-95
2022/01/25 10:05:05;;;;;;;;;;;;;;;;;;5018111;28;19925;-96
2022/01/25 10:07:31;;;;;;;;;;;;;;;;;;5025596;28;19925;-96
2022/01/25 10:09:57;;;;;;;;;;;;;;;;;;5022935;28;19933;-96
2022/01/25 10:12:24;;;;;;;;;;;;;;;;;;5014889;28;19933;-96
2022/01/25 10:14:50;;;;;;;;;;;;;;;;;;4998918;28;19925;-96
2022/01/25 10:17:16;;;;;;;;;;;;;;;;;;5001410;28;20490;-95
2022/01/25 10:19:42;;;;;;;;;;;;;;;;;;4996038;28;19926;-96
2022/01/25 10:22:09;;;;;;;;;;;;;;;;;;5020219;28;19933;-96
2022/01/25 10:24:35;;;;;;;;;;;;;;;;;;5023613;28;19926;-96
2022/01/25 10:27:01;;;;;;;;;;;;;;;;;;5015170;28;19925;-96
2022/01/25 10:29:29;;;;;;;;;;;;;;;;;;4999718;28;19929;-96
2022/01/25 10:31:57;;;;;;;;;;;;;;;;;;5004827;28;19926;-95
2022/01/25 10:34:23;;;;;;;;;;;;;;;;;;5003856;28;19949;-96
2022/01/25 10:36:50;;;;;;;;;;;;;;;;;;5003800;28;20372;-96
2022/01/25 10:39:16;;;;;;;;;;;;;;;;;;5016694;28;19925;-96
2022/01/25 10:41:43;;;;;;;;;;;;;;;;;;5053726;23;19929;-96
2022/01/25 10:44:13;;;;;;;;;;;;;;;;;;5052460;28;19979;-96
2022/01/25 10:46:44;;;;;;;;;;;;;;;;;;5054357;28;19929;-96
2022/01/25 10:49:10;;;;;;;;;;;;;;;;;;5051443;28;19925;-96
2022/01/25 10:54:06;;;;;;;;;;;;;;;;;;5046639;28;19921;-96
2022/01/25 10:56:35;;;;;;;;;;;;;;;;;;5052105;28;19933;-96
2022/01/25 10:59:01;;;;;;;;;;;;;;;;;;5047531;28;19909;-96
2022/01/25 11:01:28;;;;;;;;;;;;;;;;;;5047733;28;19931;-96
2022/01/25 11:03:54;;;;;;;;;;;;;;;;;;5048585;28;19932;-96
2022/01/25 11:06:21;;;;;;;;;;;;;;;;;;5050418;28;20063;-96
2022/01/25 11:09:00;;;;;;;;;;;;;;;;;;5245951;22;19960;-97
2022/01/25 11:11:27;;;;;;;;;;;;;;;;;;5159548;22;19925;-96
2022/01/25 11:13:54;;;;;;;;;;;;;;;;;;5064892;28;19979;-94
2022/01/25 11:16:21;;;;;;;;;;;;;;;;;;5066673;28;19971;-96
2022/01/25 11:21:27;;;;;;;;;;;;;;;;;;5070341;28;19948;-96
2022/01/25 11:23:54;;;;;;;;;;;;;;;;;;5069269;28;19999;-96
2022/01/25 11:26:22;;;;;;;;;;;;;;;;;;5075138;28;20702;-97
2022/01/25 11:28:48;;;;;;;;;;;;;;;;;;5097847;22;19928;-96
2022/01/25 11:31:14;;;;;;;;;;;;;;;;;;5066683;28;19932;-95
2022/01/25 11:33:41;;;;;;;;;;;;;;;;;;5064843;28;19955;-94
2022/01/25 11:36:07;;;;;;;;;;;;;;;;;;5062348;28;20425;-92
2022/01/25 11:38:33;;;;;;;;;;;;;;;;;;5061279;28;19924;-95
2022/01/25 11:41:00;;;;;;;;;;;;;;;;;;5062698;28;19925;-94
2022/01/25 11:43:29;;;;;;;;;;;;;;;;;;5063198;28;19956;-95
2022/01/25 11:45:55;;;;;;;;;;;;;;;;;;5063126;28;19924;-94
2022/01/25 11:48:21;;;;;;;;;;;;;;;;;;5061624;28;19924;-90
2022/01/25 11:50:48;;;;;;;;;;;;;;;;;;5062919;28;19929;-90
2022/01/25 11:53:14;;;;;;;;;;;;;;;;;;5062306;28;19925;-95
2022/01/25 11:55:41;;;;;;;;;;;;;;;;;;5064160;28;19951;-91
2022/01/25 11:58:07;;;;;;;;;;;;;;;;;;5063049;28;20478;-94
2022/01/25 12:00:35;;;;;;;;;;;;;;;;;;5062929;28;19948;-94
2022/01/25 12:03:01;;;;;;;;;;;;;;;;;;5061004;28;19929;-92
2022/01/25 12:05:28;;;;;;;;;;;;;;;;;;5061655;28;19929;-92
2022/01/25 12:07:54;;;;;;;;;;;;;;;;;;5068885;28;19925;-96
2022/01/25 12:10:20;;;;;;;;;;;;;;;;;;5065005;28;19925;-94
2022/01/25 12:12:48;;;;;;;;;;;;;;;;;;5064553;28;19928;-94
2022/01/25 12:15:17;;;;;;;;;;;;;;;;;;5064201;28;19925;-94
2022/01/25 12:17:43;;;;;;;;;;;;;;;;;;5062641;28;19991;-94
2022/01/25 12:20:10;;;;;;;;;;;;;;;;;;5064444;28;19933;-92
2022/01/25 12:22:37;;;;;;;;;;;;;;;;;;5061783;28;19952;-93
2022/01/25 12:25:09;;;;;;;;;;;;;;;;;;5062456;28;19924;-93
2022/01/25 12:27:36;;;;;;;;;;;;;;;;;;5062773;28;19980;-94
2022/01/25 12:30:02;;;;;;;;;;;;;;;;;;5062427;28;19928;-96
2022/01/25 12:32:29;;;;;;;;;;;;;;;;;;5066830;28;19924;-96
2022/01/25 12:34:56;;;;;;;;;;;;;;;;;;5065102;28;19968;-95
2022/01/25 12:37:22;;;;;;;;;;;;;;;;;;5064830;28;19967;-94
2022/01/25 12:39:48;;;;;;;;;;;;;;;;;;5063987;28;19924;-95
2022/01/25 12:42:14;;;;;;;;;;;;;;;;;;5057727;28;19970;-95
2022/01/25 12:44:41;;;;;;;;;;;;;;;;;;5062270;28;19929;-95
2022/01/25 12:47:07;;;;;;;;;;;;;;;;;;5063761;28;19947;-96
2022/01/25 12:49:33;;;;;;;;;;;;;;;;;;5054024;28;19955;-96
2022/01/25 12:52:00;;;;;;;;;;;;;;;;;;5067013;28;19967;-96
2022/01/25 12:54:28;;;;;;;;;;;;;;;;;;5062669;28;19924;-96
2022/01/25 12:56:55;;;;;;;;;;;;;;;;;;5064347;28;19924;-95
2022/01/25 12:59:24;;;;;;;;;;;;;;;;;;5066560;28;19908;-96
2022/01/25 13:02:05;;;;;;;;;;;;;;;;;;5044497;28;19975;-96
2022/01/25 13:04:33;;;;;;;;;;;;;;;;;;5046564;28;19909;-96
2022/01/25 13:06:59;;;;;;;;;;;;;;;;;;5049362;28;20006;-95
2022/01/25 13:09:29;;;;;;;;;;;;;;;;;;5058658;28;19943;-96
2022/01/25 13:12:12;;;;;;;;;;;;;;;;;;5057946;28;19929;-96
2022/01/25 13:14:49;;;;;;;;;;;;;;;;;;5051911;28;19925;-95
2022/01/25 13:17:16;;;;;;;;;;;;;;;;;;5067440;28;19951;-96
2022/01/25 13:19:45;;;;;;;;;;;;;;;;;;5066934;28;19925;-96
2022/01/25 13:22:14;;;;;;;;;;;;;;;;;;5051593;28;19980;-96
2022/01/25 13:27:20;;;;;;;;;;;;;;;;;;5049096;28;19944;-90
2022/01/25 13:32:31;;;;;;;;;;;;;;;;;;5041784;28;19927;-94
2022/01/25 13:34:58;;;;;;;;;;;;;;;;;;5034393;28;19930;-96
2022/01/25 13:37:24;;;;;;;;;;;;;;;;;;5037705;28;19925;-96
2022/01/25 13:39:51;;;;;;;;;;;;;;;;;;5036515;28;19964;-94
2022/01/25 13:42:20;;;;;;;;;;;;;;;;;;5025475;28;20406;-94
2022/01/25 13:47:30;;;;;;;;;;;;;;;;;;5051027;28;19920;-95
2022/01/25 13:49:57;;;;;;;;;;;;;;;;;;5043055;28;19956;-93
2022/01/25 13:52:23;;;;;;;;;;;;;;;;;;5043358;28;20071;-94
2022/01/25 13:54:52;;;;;;;;;;;;;;;;;;5044167;28;19929;-95
2022/01/25 13:57:18;;;;;;;;;;;;;;;;;;5042753;28;19932;-93
2022/01/25 13:59:47;;;;;;;;;;;;;;;;;;5045126;28;19925;-96
2022/01/25 14:02:13;;;;;;;;;;;;;;;;;;5046337;28;19925;-95
2022/01/25 14:04:39;;;;;;;;;;;;;;;;;;5045225;28;20125;-94
2022/01/25 14:07:05;;;;;;;;;;;;;;;;;;5049671;28;19925;-96
2022/01/25 14:09:34;;;;;;;;;;;;;;;;;;5047961;28;19992;-95
2022/01/25 14:23:18;;;;;;;;;;;;;;;;;;5040087;28;19928;-95
2022/01/25 14:25:44;;;;;;;;;;;;;;;;;;5046304;28;19929;-91
2022/01/25 14:28:11;;;;;;;;;;;;;;;;;;5045869;28;20015;-92
2022/01/25 14:30:37;;;;;;;;;;;;;;;;;;5063072;28;19933;-92
2022/01/25 14:33:04;;;;;;;;;;;;;;;;;;5063455;28;19951;-91
2022/01/25 14:35:30;;;;;;;;;;;;;;;;;;5061759;28;19925;-92
2022/01/25 14:37:57;;;;;;;;;;;;;;;;;;5061057;28;19925;-92
2022/01/25 14:43:03;;;;;;;;;;;;;;;;;;5059931;28;19948;-91
2022/01/25 14:45:29;;;;;;;;;;;;;;;;;;5064156;28;19989;-90
2022/01/25 14:47:57;;;;;;;;;;;;;;;;;;5063737;28;19986;-92
2022/01/25 14:50:23;;;;;;;;;;;;;;;;;;5063662;28;19953;-91
2022/01/25 14:52:49;;;;;;;;;;;;;;;;;;5062969;28;19933;-92
2022/01/25 14:55:16;;;;;;;;;;;;;;;;;;5064669;28;19951;-96
2022/01/25 14:58:00;;;;;;;;;;;;;;;;;;5064357;28;19940;-95
2022/01/25 15:00:28;;;;;;;;;;;;;;;;;;5061554;28;19947;-92
2022/01/25 15:02:54;;;;;;;;;;;;;;;;;;5063738;28;19947;-94
2022/01/25 15:05:21;;;;;;;;;;;;;;;;;;5064728;28;19956;-91
2022/01/25 15:07:47;;;;;;;;;;;;;;;;;;5061973;28;19929;-92
2022/01/25 15:10:19;;;;;;;;;;;;;;;;;;5066800;28;19955;-96
2022/01/25 15:12:48;;;;;;;;;;;;;;;;;;5064465;28;19946;-91
2022/01/25 15:15:17;;;;;;;;;;;;;;;;;;5052034;28;19925;-92
2022/01/25 15:17:43;;;;;;;;;;;;;;;;;;5055865;28;19951;-94
2022/01/25 15:20:09;;;;;;;;;;;;;;;;;;5057632;28;19925;-93
2022/01/25 15:22:41;;;;;;;;;;;;;;;;;;5034994;28;19924;-95
2022/01/25 15:25:08;;;;;;;;;;;;;;;;;;5057301;28;19925;-94
2022/01/25 15:27:35;;;;;;;;;;;;;;;;;;5054380;28;20066;-96
2022/01/25 15:30:01;;;;;;;;;;;;;;;;;;5037342;28;19933;-96
2022/01/25 15:32:33;;;;;;;;;;;;;;;;;;5039746;28;19949;-94
2022/01/25 15:35:00;;;;;;;;;;;;;;;;;;5031703;28;19981;-92
2022/01/25 15:37:26;;;;;;;;;;;;;;;;;;5030649;28;20414;-91
2022/01/25 15:39:52;;;;;;;;;;;;;;;;;;5024826;28;19996;-92
2022/01/25 15:42:21;;;;;;;;;;;;;;;;;;5045621;28;19909;-93
2022/01/25 15:44:49;;;;;;;;;;;;;;;;;;5042455;28;19968;-90
2022/01/25 15:47:15;;;;;;;;;;;;;;;;;;5042250;28;19994;-91
2022/01/25 15:49:41;;;;;;;;;;;;;;;;;;5040401;28;19925;-92
2022/01/25 15:52:08;;;;;;;;;;;;;;;;;;5040256;28;19925;-91
2022/01/25 15:54:36;;;;;;;;;;;;;;;;;;5040660;28;19970;-95
2022/01/25 15:57:03;;;;;;;;;;;;;;;;;;5041672;28;20005;-91
2022/01/25 15:59:31;;;;;;;;;;;;;;;;;;5041543;28;20298;-91
2022/01/25 16:01:57;;;;;;;;;;;;;;;;;;5041520;28;19929;-93
2022/01/25 16:04:23;;;;;;;;;;;;;;;;;;5042170;28;19929;-92
2022/01/25 16:06:49;;;;;;;;;;;;;;;;;;5042089;28;19933;-91
2022/01/25 16:09:16;;;;;;;;;;;;;;;;;;5041665;28;19925;-91
2022/01/25 16:11:42;;;;;;;;;;;;;;;;;;5037970;28;19926;-91
2022/01/25 16:14:08;;;;;;;;;;;;;;;;;;5040607;28;20362;-92
2022/01/25 16:16:34;;;;;;;;;;;;;;;;;;5039826;28;19948;-91
2022/01/25 16:19:01;;;;;;;;;;;;;;;;;;5041278;28;20334;-92
2022/01/25 16:21:27;;;;;;;;;;;;;;;;;;5041213;28;20361;-91
2022/01/25 16:23:53;;;;;;;;;;;;;;;;;;5041495;28;20354;-92
2022/01/25 16:26:19;;;;;;;;;;;;;;;;;;5041070;28;20658;-92
2022/01/25 16:28:45;;;;;;;;;;;;;;;;;;5046824;28;19987;-91
2022/01/25 16:31:18;;;;;;;;;;;;;;;;;;5061237;28;19925;-92
2022/01/25 16:33:44;;;;;;;;;;;;;;;;;;5060384;28;19924;-93
2022/01/25 16:36:11;;;;;;;;;;;;;;;;;;5059999;28;19948;-93
2022/01/25 16:38:37;;;;;;;;;;;;;;;;;;5061628;28;19947;-96
2022/01/25 16:41:03;;;;;;;;;;;;;;;;;;5063678;28;19924;-92
2022/01/25 16:43:29;;;;;;;;;;;;;;;;;;5064834;28;20318;-93
2022/01/25 16:45:58;;;;;;;;;;;;;;;;;;5065002;28;20291;-93
2022/01/25 16:48:24;;;;;;;;;;;;;;;;;;5064812;28;20345;-94
2022/01/25 16:50:50;;;;;;;;;;;;;;;;;;5063775;28;20353;-93
2022/01/25 16:53:17;;;;;;;;;;;;;;;;;;5064316;28;19925;-93
2022/01/25 16:55:43;;;;;;;;;;;;;;;;;;5064087;28;19944;-93
2022/01/25 16:58:09;;;;;;;;;;;;;;;;;;5064033;28;19928;-95
2022/01/25 17:00:39;;;;;;;;;;;;;;;;;;5064098;28;19990;-95
2022/01/25 17:03:05;;;;;;;;;;;;;;;;;;5063905;28;19964;-94
2022/01/25 17:05:31;;;;;;;;;;;;;;;;;;5063848;28;19929;-95
2022/01/25 17:07:58;;;;;;;;;;;;;;;;;;5063920;28;19928;-94
2022/01/25 17:10:24;;;;;;;;;;;;;;;;;;5064593;28;19975;-94
2022/01/25 17:12:51;;;;;;;;;;;;;;;;;;5064632;28;19951;-95
2022/01/25 17:15:17;;;;;;;;;;;;;;;;;;5063975;28;19928;-95
2022/01/25 17:17:43;;;;;;;;;;;;;;;;;;5063594;28;19928;-93
2022/01/25 17:20:09;;;;;;;;;;;;;;;;;;5059161;28;19933;-93
2022/01/25 17:22:36;;;;;;;;;;;;;;;;;;5059287;28;19925;-92
2022/01/25 17:25:02;;;;;;;;;;;;;;;;;;5059544;28;19932;-96
2022/01/25 17:27:28;;;;;;;;;;;;;;;;;;5054362;28;19929;-90
2022/01/25 17:29:54;;;;;;;;;;;;;;;;;;5035769;28;19929;-91
2022/01/25 17:32:21;;;;;;;;;;;;;;;;;;5032881;28;19932;-91
2022/01/25 17:34:47;;;;;;;;;;;;;;;;;;5033693;28;19957;-91
2022/01/25 17:37:16;;;;;;;;;;;;;;;;;;5033867;28;19949;-92
2022/01/25 17:39:42;;;;;;;;;;;;;;;;;;5035745;28;20005;-91
2022/01/25 17:42:08;;;;;;;;;;;;;;;;;;5041701;28;19929;-92
2022/01/25 17:44:34;;;;;;;;;;;;;;;;;;5042409;28;19952;-91
2022/01/25 17:47:00;;;;;;;;;;;;;;;;;;5043113;28;19952;-92
2022/01/25 17:49:28;;;;;;;;;;;;;;;;;;5042905;28;19926;-92
2022/01/25 17:51:55;;;;;;;;;;;;;;;;;;5042054;28;19929;-92
2022/01/25 17:54:22;;;;;;;;;;;;;;;;;;5043461;28;19929;-92
2022/01/25 17:56:48;;;;;;;;;;;;;;;;;;5042181;28;19925;-92
2022/01/25 17:59:14;;;;;;;;;;;;;;;;;;5033328;28;19960;-92
2022/01/25 18:01:40;;;;;;;;;;;;;;;;;;5030338;28;19956;-92
2022/01/25 18:04:07;;;;;;;;;;;;;;;;;;5039511;28;19929;-92
2022/01/25 18:06:36;;;;;;;;;;;;;;;;;;5033960;28;20350;-92
2022/01/25 18:09:02;;;;;;;;;;;;;;;;;;5033861;28;19995;-92
2022/01/25 18:11:28;;;;;;;;;;;;;;;;;;5033070;28;19932;-92
2022/01/25 18:13:55;;;;;;;;;;;;;;;;;;5030661;28;20000;-92
2022/01/25 18:16:21;;;;;;;;;;;;;;;;;;5029819;28;19934;-92
2022/01/25 18:18:47;;;;;;;;;;;;;;;;;;5031010;28;19937;-93
2022/01/25 18:21:13;;;;;;;;;;;;;;;;;;5023318;28;19936;-92
2022/01/25 18:24:02;;;;;;;;;;;;;;;;;;5042552;28;19991;-93
2022/01/25 18:26:43;;;;;;;;;;;;;;;;;;5043062;28;19936;-93